sensor_id;sensor_type;location;lat;lon;timestamp;pressure;altitude;pressure_sealevel;temperature;humidity
12963;BME280;6546;49.882;8.666;2022-08-11T00:01:45;100367.38;;;21.50;43.06
12963;BME280;6546;49.882;8.666;2022-08-11T00:04:14;100369.34;;;21.43;43.33
12963;BME280;6546;49.882;8.666;2022-08-11T00:06:42;100363.41;;;21.38;43.36
12963;BME280;6546;49.882;8.666;2022-08-11T00:09:12;100366.09;;;21.37;43.47
12963;BME280;6546;49.882;8.666;2022-08-11T00:11:43;100366.03;;;21.38;43.46
12963;BME280;6546;49.882;8.666;2022-08-11T00:14:17;100360.75;;;21.38;43.44
12963;BME280;6546;49.882;8.666;2022-08-11T00:16:54;100362.47;;;21.39;43.61
12963;BME280;6546;49.882;8.666;2022-08-11T00:19:23;100352.78;;;21.41;43.32
12963;BME280;6546;49.882;8.666;2022-08-11T00:21:52;100357.34;;;21.36;43.79
12963;BME280;6546;49.882;8.666;2022-08-11T00:24:20;100356.44;;;21.36;43.59
12963;BME280;6546;49.882;8.666;2022-08-11T00:26:48;100360.13;;;21.30;44.00
12963;BME280;6546;49.882;8.666;2022-08-11T00:29:15;100351.00;;;21.15;44.15
12963;BME280;6546;49.882;8.666;2022-08-11T00:31:43;100356.69;;;21.02;44.36
12963;BME280;6546;49.882;8.666;2022-08-11T00:34:14;100365.41;;;21.04;44.39
12963;BME280;6546;49.882;8.666;2022-08-11T00:36:46;100364.91;;;20.92;44.32
12963;BME280;6546;49.882;8.666;2022-08-11T00:39:17;100361.19;;;20.98;44.38
12963;BME280;6546;49.882;8.666;2022-08-11T00:41:57;100361.34;;;20.93;44.56
12963;BME280;6546;49.882;8.666;2022-08-11T00:44:35;100358.63;;;20.97;44.64
12963;BME280;6546;49.882;8.666;2022-08-11T00:47:20;100350.81;;;20.93;44.60
12963;BME280;6546;49.882;8.666;2022-08-11T00:50:02;100360.34;;;20.98;44.78
12963;BME280;6546;49.882;8.666;2022-08-11T00:52:49;100362.28;;;20.92;44.67
12963;BME280;6546;49.882;8.666;2022-08-11T00:55:35;100355.19;;;20.95;44.83
12963;BME280;6546;49.882;8.666;2022-08-11T01:01:19;100356.16;;;20.92;44.78
12963;BME280;6546;49.882;8.666;2022-08-11T01:04:11;100353.38;;;20.97;44.68
12963;BME280;6546;49.882;8.666;2022-08-11T01:06:53;100351.84;;;20.89;44.96
12963;BME280;6546;49.882;8.666;2022-08-11T01:09:39;100355.47;;;20.85;44.92
12963;BME280;6546;49.882;8.666;2022-08-11T01:12:38;100354.38;;;20.92;44.79
12963;BME280;6546;49.882;8.666;2022-08-11T01:15:41;100353.84;;;20.81;45.12
12963;BME280;6546;49.882;8.666;2022-08-11T01:22:10;100366.00;;;20.85;45.00
12963;BME280;6546;49.882;8.666;2022-08-11T01:25:02;100361.03;;;20.76;44.98
12963;BME280;6546;49.882;8.666;2022-08-11T01:28:29;100366.41;;;20.73;45.14
12963;BME280;6546;49.882;8.666;2022-08-11T01:31:42;100369.94;;;20.72;45.23
12963;BME280;6546;49.882;8.666;2022-08-11T01:37:34;100370.13;;;20.66;45.50
12963;BME280;6546;49.882;8.666;2022-08-11T01:40:20;100368.22;;;20.71;45.28
12963;BME280;6546;49.882;8.666;2022-08-11T01:43:29;100378.94;;;20.65;45.40
12963;BME280;6546;49.882;8.666;2022-08-11T01:46:28;100377.69;;;20.49;45.80
12963;BME280;6546;49.882;8.666;2022-08-11T01:49:10;100369.81;;;20.49;45.86
12963;BME280;6546;49.882;8.666;2022-08-11T01:51:52;100370.72;;;20.46;45.76
12963;BME280;6546;49.882;8.666;2022-08-11T01:54:39;100367.31;;;20.42;45.92
12963;BME280;6546;49.882;8.666;2022-08-11T01:57:16;100370.94;;;20.38;45.97
12963;BME280;6546;49.882;8.666;2022-08-11T01:59:49;100372.69;;;20.39;46.14
12963;BME280;6546;49.882;8.666;2022-08-11T02:02:31;100373.47;;;20.41;46.16
12963;BME280;6546;49.882;8.666;2022-08-11T02:05:51;100367.59;;;20.33;46.29
12963;BME280;6546;49.882;8.666;2022-08-11T02:08:35;100370.38;;;20.29;46.15
12963;BME280;6546;49.882;8.666;2022-08-11T02:11:17;100375.75;;;20.24;46.28
12963;BME280;6546;49.882;8.666;2022-08-11T02:14:01;100374.84;;;20.25;46.60
12963;BME280;6546;49.882;8.666;2022-08-11T02:16:38;100374.75;;;20.28;46.30
12963;BME280;6546;49.882;8.666;2022-08-11T02:19:19;100366.81;;;20.31;46.15
12963;BME280;6546;49.882;8.666;2022-08-11T02:22:08;100369.50;;;20.28;46.26
12963;BME280;6546;49.882;8.666;2022-08-11T02:24:59;100368.66;;;20.28;46.12
12963;BME280;6546;49.882;8.666;2022-08-11T02:27:39;100366.31;;;20.17;46.66
12963;BME280;6546;49.882;8.666;2022-08-11T02:30:09;100370.72;;;20.16;46.92
12963;BME280;6546;49.882;8.666;2022-08-11T02:32:47;100375.13;;;20.16;46.76
12963;BME280;6546;49.882;8.666;2022-08-11T02:35:41;100378.81;;;20.09;46.67
12963;BME280;6546;49.882;8.666;2022-08-11T02:38:16;100373.56;;;20.09;47.25
12963;BME280;6546;49.882;8.666;2022-08-11T02:40:48;100373.84;;;20.00;47.25
12963;BME280;6546;49.882;8.666;2022-08-11T02:43:30;100366.88;;;19.99;47.02
12963;BME280;6546;49.882;8.666;2022-08-11T02:46:15;100370.75;;;19.85;47.91
12963;BME280;6546;49.882;8.666;2022-08-11T02:48:52;100366.38;;;19.84;47.43
12963;BME280;6546;49.882;8.666;2022-08-11T02:51:50;100373.03;;;19.98;47.05
12963;BME280;6546;49.882;8.666;2022-08-11T02:54:24;100367.03;;;19.92;47.25
12963;BME280;6546;49.882;8.666;2022-08-11T02:56:56;100368.94;;;19.87;47.47
12963;BME280;6546;49.882;8.666;2022-08-11T02:59:32;100360.06;;;19.91;47.28
12963;BME280;6546;49.882;8.666;2022-08-11T03:02:30;100358.34;;;19.90;47.07
12963;BME280;6546;49.882;8.666;2022-08-11T03:05:11;100368.78;;;19.93;47.10
12963;BME280;6546;49.882;8.666;2022-08-11T03:07:50;100357.56;;;19.87;47.16
12963;BME280;6546;49.882;8.666;2022-08-11T03:10:31;100360.13;;;19.88;47.04
12963;BME280;6546;49.882;8.666;2022-08-11T03:13:05;100362.09;;;19.82;46.96
12963;BME280;6546;49.882;8.666;2022-08-11T03:16:08;100366.63;;;19.77;47.60
12963;BME280;6546;49.882;8.666;2022-08-11T03:19:02;100366.78;;;19.71;47.35
12963;BME280;6546;49.882;8.666;2022-08-11T03:21:37;100371.28;;;19.65;47.63
12963;BME280;6546;49.882;8.666;2022-08-11T03:24:13;100362.56;;;19.65;47.32
12963;BME280;6546;49.882;8.666;2022-08-11T03:26:47;100365.06;;;19.69;47.42
12963;BME280;6546;49.882;8.666;2022-08-11T03:29:24;100359.97;;;19.63;47.38
12963;BME280;6546;49.882;8.666;2022-08-11T03:32:01;100361.66;;;19.66;47.50
12963;BME280;6546;49.882;8.666;2022-08-11T03:34:31;100361.72;;;19.63;47.69
12963;BME280;6546;49.882;8.666;2022-08-11T03:37:27;100366.97;;;19.63;47.71
12963;BME280;6546;49.882;8.666;2022-08-11T03:40:32;100365.81;;;19.40;49.20
12963;BME280;6546;49.882;8.666;2022-08-11T03:43:30;100366.47;;;19.49;48.45
12963;BME280;6546;49.882;8.666;2022-08-11T03:46:07;100369.81;;;19.55;48.13
12963;BME280;6546;49.882;8.666;2022-08-11T03:48:46;100371.72;;;19.49;48.45
12963;BME280;6546;49.882;8.666;2022-08-11T03:51:22;100375.31;;;19.44;48.36
12963;BME280;6546;49.882;8.666;2022-08-11T03:54:09;100382.47;;;19.39;48.71
12963;BME280;6546;49.882;8.666;2022-08-11T04:00:13;100388.88;;;19.28;49.33
12963;BME280;6546;49.882;8.666;2022-08-11T04:03:01;100388.38;;;19.12;49.74
12963;BME280;6546;49.882;8.666;2022-08-11T04:06:00;100380.00;;;18.98;50.18
12963;BME280;6546;49.882;8.666;2022-08-11T04:12:09;100384.69;;;18.85;50.60
12963;BME280;6546;49.882;8.666;2022-08-11T04:15:09;100378.59;;;18.84;50.80
12963;BME280;6546;49.882;8.666;2022-08-11T04:18:16;100378.47;;;18.87;50.63
12963;BME280;6546;49.882;8.666;2022-08-11T04:21:08;100385.59;;;18.82;51.07
12963;BME280;6546;49.882;8.666;2022-08-11T04:23:58;100382.06;;;18.83;50.97
12963;BME280;6546;49.882;8.666;2022-08-11T04:29:56;100384.13;;;18.69;51.59
12963;BME280;6546;49.882;8.666;2022-08-11T04:32:55;100381.63;;;18.64;51.82
12963;BME280;6546;49.882;8.666;2022-08-11T04:35:33;100374.53;;;18.69;51.75
12963;BME280;6546;49.882;8.666;2022-08-11T04:38:33;100382.47;;;18.65;51.84
12963;BME280;6546;49.882;8.666;2022-08-11T04:41:37;100381.56;;;18.67;51.97
12963;BME280;6546;49.882;8.666;2022-08-11T04:47:43;100376.31;;;18.67;52.01
12963;BME280;6546;49.882;8.666;2022-08-11T04:50:50;100377.19;;;18.68;52.49
12963;BME280;6546;49.882;8.666;2022-08-11T04:53:53;100371.91;;;18.71;52.17
12963;BME280;6546;49.882;8.666;2022-08-11T04:56:40;100378.00;;;18.72;52.06
12963;BME280;6546;49.882;8.666;2022-08-11T04:59:39;100374.31;;;18.79;52.47
12963;BME280;6546;49.882;8.666;2022-08-11T05:05:51;100384.69;;;18.83;52.37
12963;BME280;6546;49.882;8.666;2022-08-11T05:08:45;100380.13;;;18.91;51.94
12963;BME280;6546;49.882;8.666;2022-08-11T05:12:04;100386.84;;;19.03;52.17
12963;BME280;6546;49.882;8.666;2022-08-11T05:14:38;100390.19;;;19.10;51.78
12963;BME280;6546;49.882;8.666;2022-08-11T05:17:33;100391.84;;;19.14;51.67
12963;BME280;6546;49.882;8.666;2022-08-11T05:20:18;100393.63;;;19.12;51.66
12963;BME280;6546;49.882;8.666;2022-08-11T05:23:05;100393.44;;;19.19;51.64
12963;BME280;6546;49.882;8.666;2022-08-11T05:25:54;100390.78;;;19.21;51.84
12963;BME280;6546;49.882;8.666;2022-08-11T05:28:47;100389.81;;;19.25;51.60
12963;BME280;6546;49.882;8.666;2022-08-11T05:31:36;100398.34;;;19.33;51.62
12963;BME280;6546;49.882;8.666;2022-08-11T05:34:23;100403.38;;;19.42;51.52
12963;BME280;6546;49.882;8.666;2022-08-11T05:37:11;100405.72;;;19.53;51.06
12963;BME280;6546;49.882;8.666;2022-08-11T05:39:43;100399.44;;;19.59;51.22
12963;BME280;6546;49.882;8.666;2022-08-11T05:42:28;100402.03;;;19.60;51.37
12963;BME280;6546;49.882;8.666;2022-08-11T05:45:16;100402.84;;;19.64;51.22
12963;BME280;6546;49.882;8.666;2022-08-11T05:48:02;100405.88;;;19.81;50.76
12963;BME280;6546;49.882;8.666;2022-08-11T05:50:51;100404.50;;;19.99;50.38
12963;BME280;6546;49.882;8.666;2022-08-11T05:53:44;100411.97;;;20.13;50.19
12963;BME280;6546;49.882;8.666;2022-08-11T05:56:28;100415.19;;;20.24;49.92
12963;BME280;6546;49.882;8.666;2022-08-11T05:58:56;100419.09;;;20.39;49.32
12963;BME280;6546;49.882;8.666;2022-08-11T06:01:26;100424.16;;;20.76;48.64
12963;BME280;6546;49.882;8.666;2022-08-11T06:03:56;100422.56;;;21.53;47.79
12963;BME280;6546;49.882;8.666;2022-08-11T06:06:47;100411.91;;;22.06;46.12
12963;BME280;6546;49.882;8.666;2022-08-11T06:09:21;100413.16;;;22.21;45.44
12963;BME280;6546;49.882;8.666;2022-08-11T06:11:49;100411.78;;;22.34;45.19
12963;BME280;6546;49.882;8.666;2022-08-11T06:14:17;100410.94;;;22.09;46.10
12963;BME280;6546;49.882;8.666;2022-08-11T06:16:48;100412.13;;;22.25;46.25
12963;BME280;6546;49.882;8.666;2022-08-11T06:19:16;100406.13;;;22.20;45.75
12963;BME280;6546;49.882;8.666;2022-08-11T06:21:47;100409.44;;;22.02;45.38
12963;BME280;6546;49.882;8.666;2022-08-11T06:24:16;100416.00;;;22.15;45.54
12963;BME280;6546;49.882;8.666;2022-08-11T06:26:47;100416.41;;;22.28;45.33
12963;BME280;6546;49.882;8.666;2022-08-11T06:29:16;100408.09;;;22.38;45.74
12963;BME280;6546;49.882;8.666;2022-08-11T06:31:51;100406.72;;;22.52;44.48
12963;BME280;6546;49.882;8.666;2022-08-11T06:34:34;100413.03;;;22.48;44.87
12963;BME280;6546;49.882;8.666;2022-08-11T06:37:14;100411.53;;;22.40;45.07
12963;BME280;6546;49.882;8.666;2022-08-11T06:39:47;100414.50;;;22.31;44.68
12963;BME280;6546;49.882;8.666;2022-08-11T06:42:31;100409.47;;;22.49;44.04
12963;BME280;6546;49.882;8.666;2022-08-11T06:45:04;100401.63;;;22.69;43.30
12963;BME280;6546;49.882;8.666;2022-08-11T06:47:34;100407.22;;;22.83;43.02
12963;BME280;6546;49.882;8.666;2022-08-11T06:50:01;100405.75;;;22.76;43.25
12963;BME280;6546;49.882;8.666;2022-08-11T06:52:46;100411.13;;;22.97;42.99
12963;BME280;6546;49.882;8.666;2022-08-11T06:55:14;100409.75;;;23.08;42.77
12963;BME280;6546;49.882;8.666;2022-08-11T06:58:11;100410.09;;;23.21;42.49
12963;BME280;6546;49.882;8.666;2022-08-11T07:00:58;100410.00;;;23.24;42.26
12963;BME280;6546;49.882;8.666;2022-08-11T07:03:31;100408.63;;;23.36;42.02
12963;BME280;6546;49.882;8.666;2022-08-11T07:06:09;100403.78;;;23.25;41.82
12963;BME280;6546;49.882;8.666;2022-08-11T07:08:58;100400.50;;;23.40;41.74
12963;BME280;6546;49.882;8.666;2022-08-11T07:12:01;100409.41;;;23.58;41.64
12963;BME280;6546;49.882;8.666;2022-08-11T07:14:54;100410.06;;;23.65;41.09
12963;BME280;6546;49.882;8.666;2022-08-11T07:17:43;100416.97;;;23.68;41.29
12963;BME280;6546;49.882;8.666;2022-08-11T07:20:16;100407.59;;;23.60;41.78
12963;BME280;6546;49.882;8.666;2022-08-11T07:23:01;100410.91;;;23.65;41.93
12963;BME280;6546;49.882;8.666;2022-08-11T07:25:51;100407.63;;;23.81;41.91
12963;BME280;6546;49.882;8.666;2022-08-11T07:28:33;100406.78;;;23.99;41.48
12963;BME280;6546;49.882;8.666;2022-08-11T07:31:28;100405.00;;;24.19;41.74
12963;BME280;6546;49.882;8.666;2022-08-11T07:34:03;100411.03;;;24.22;40.99
12963;BME280;6546;49.882;8.666;2022-08-11T07:36:38;100408.88;;;24.11;41.28
12963;BME280;6546;49.882;8.666;2022-08-11T07:39:07;100406.25;;;24.11;41.10
12963;BME280;6546;49.882;8.666;2022-08-11T07:41:36;100408.38;;;24.03;41.74
12963;BME280;6546;49.882;8.666;2022-08-11T07:44:03;100402.31;;;24.20;40.76
12963;BME280;6546;49.882;8.666;2022-08-11T07:46:35;100401.25;;;24.24;41.51
12963;BME280;6546;49.882;8.666;2022-08-11T07:49:22;100405.84;;;24.39;41.09
12963;BME280;6546;49.882;8.666;2022-08-11T07:52:08;100405.84;;;24.39;41.39
12963;BME280;6546;49.882;8.666;2022-08-11T07:54:54;100400.66;;;24.57;40.46
12963;BME280;6546;49.882;8.666;2022-08-11T07:57:21;100406.78;;;24.57;40.94
12963;BME280;6546;49.882;8.666;2022-08-11T08:00:07;100394.06;;;24.66;40.90
12963;BME280;6546;49.882;8.666;2022-08-11T08:02:51;100398.75;;;24.78;40.97
12963;BME280;6546;49.882;8.666;2022-08-11T08:05:36;100400.97;;;24.87;40.72
12963;BME280;6546;49.882;8.666;2022-08-11T08:08:23;100400.72;;;24.92;40.50
12963;BME280;6546;49.882;8.666;2022-08-11T08:11:09;100397.00;;;24.96;40.75
12963;BME280;6546;49.882;8.666;2022-08-11T08:13:54;100393.88;;;24.87;40.30
12963;BME280;6546;49.882;8.666;2022-08-11T08:16:40;100399.28;;;25.03;40.28
12963;BME280;6546;49.882;8.666;2022-08-11T08:19:24;100396.03;;;25.16;40.36
12963;BME280;6546;49.882;8.666;2022-08-11T08:21:52;100403.53;;;25.25;40.27
12963;BME280;6546;49.882;8.666;2022-08-11T08:24:21;100405.47;;;25.38;39.70
12963;BME280;6546;49.882;8.666;2022-08-11T08:26:48;100404.16;;;25.47;39.80
12963;BME280;6546;49.882;8.666;2022-08-11T08:29:25;100404.53;;;25.57;39.11
12963;BME280;6546;49.882;8.666;2022-08-11T08:32:10;100398.44;;;25.72;39.45
12963;BME280;6546;49.882;8.666;2022-08-11T08:34:38;100408.44;;;25.67;39.22
12963;BME280;6546;49.882;8.666;2022-08-11T08:37:06;100399.22;;;25.57;38.81
12963;BME280;6546;49.882;8.666;2022-08-11T08:39:34;100403.91;;;25.69;38.68
12963;BME280;6546;49.882;8.666;2022-08-11T08:42:06;100412.19;;;25.80;38.82
12963;BME280;6546;49.882;8.666;2022-08-11T08:44:40;100403.34;;;25.97;38.21
12963;BME280;6546;49.882;8.666;2022-08-11T08:47:09;100406.09;;;26.11;38.08
12963;BME280;6546;49.882;8.666;2022-08-11T08:49:44;100396.53;;;26.25;38.39
12963;BME280;6546;49.882;8.666;2022-08-11T08:52:16;100396.06;;;26.34;37.46
12963;BME280;6546;49.882;8.666;2022-08-11T08:54:48;100398.84;;;26.48;37.71
12963;BME280;6546;49.882;8.666;2022-08-11T08:57:16;100407.91;;;26.60;37.18
12963;BME280;6546;49.882;8.666;2022-08-11T08:59:46;100398.41;;;26.72;36.33
12963;BME280;6546;49.882;8.666;2022-08-11T09:02:14;100402.63;;;26.76;36.00
12963;BME280;6546;49.882;8.666;2022-08-11T09:04:44;100409.25;;;26.67;36.49
12963;BME280;6546;49.882;8.666;2022-08-11T09:07:12;100403.97;;;26.67;36.48
12963;BME280;6546;49.882;8.666;2022-08-11T09:09:41;100392.06;;;26.74;36.43
12963;BME280;6546;49.882;8.666;2022-08-11T09:12:10;100392.16;;;26.89;36.27
12963;BME280;6546;49.882;8.666;2022-08-11T09:14:40;100382.69;;;26.99;36.18
12963;BME280;6546;49.882;8.666;2022-08-11T09:17:31;100381.91;;;27.13;35.81
12963;BME280;6546;49.882;8.666;2022-08-11T09:20:00;100379.66;;;27.21;35.55
12963;BME280;6546;49.882;8.666;2022-08-11T09:22:30;100380.78;;;27.17;35.52
12963;BME280;6546;49.882;8.666;2022-08-11T09:25:16;100385.09;;;27.19;34.95
12963;BME280;6546;49.882;8.666;2022-08-11T09:28:02;100378.25;;;27.29;34.93
12963;BME280;6546;49.882;8.666;2022-08-11T09:30:30;100380.31;;;27.40;34.35
12963;BME280;6546;49.882;8.666;2022-08-11T09:32:58;100372.78;;;27.47;34.53
12963;BME280;6546;49.882;8.666;2022-08-11T09:35:27;100372.44;;;27.53;34.59
12963;BME280;6546;49.882;8.666;2022-08-11T09:37:56;100384.97;;;27.51;32.99
12963;BME280;6546;49.882;8.666;2022-08-11T09:40:42;100369.41;;;27.45;33.32
12963;BME280;6546;49.882;8.666;2022-08-11T09:43:12;100376.53;;;27.58;33.33
12963;BME280;6546;49.882;8.666;2022-08-11T09:45:58;100376.59;;;27.43;33.21
12963;BME280;6546;49.882;8.666;2022-08-11T09:48:28;100371.88;;;27.62;33.01
12963;BME280;6546;49.882;8.666;2022-08-11T09:50:58;100373.03;;;27.72;32.84
12963;BME280;6546;49.882;8.666;2022-08-11T09:53:27;100371.72;;;27.65;32.88
12963;BME280;6546;49.882;8.666;2022-08-11T09:55:56;100367.44;;;27.77;32.58
12963;BME280;6546;49.882;8.666;2022-08-11T09:58:24;100367.66;;;27.88;32.61
12963;BME280;6546;49.882;8.666;2022-08-11T10:00:55;100365.28;;;27.83;33.12
12963;BME280;6546;49.882;8.666;2022-08-11T10:03:25;100376.59;;;27.73;33.08
12963;BME280;6546;49.882;8.666;2022-08-11T10:05:57;100366.97;;;27.84;32.92
12963;BME280;6546;49.882;8.666;2022-08-11T10:08:42;100381.34;;;27.82;32.48
12963;BME280;6546;49.882;8.666;2022-08-11T10:11:12;100368.03;;;27.82;32.58
12963;BME280;6546;49.882;8.666;2022-08-11T10:13:42;100357.34;;;27.53;32.94
12963;BME280;6546;49.882;8.666;2022-08-11T10:16:27;100361.69;;;27.40;33.19
12963;BME280;6546;49.882;8.666;2022-08-11T10:18:54;100366.88;;;27.27;33.67
12963;BME280;6546;49.882;8.666;2022-08-11T10:21:26;100382.84;;;27.27;32.84
12963;BME280;6546;49.882;8.666;2022-08-11T10:23:54;100349.72;;;27.33;32.59
12963;BME280;6546;49.882;8.666;2022-08-11T10:26:41;100356.00;;;27.46;32.07
12963;BME280;6546;49.882;8.666;2022-08-11T10:29:26;100359.22;;;27.51;31.15
12963;BME280;6546;49.882;8.666;2022-08-11T10:32:12;100340.94;;;27.61;31.09
12963;BME280;6546;49.882;8.666;2022-08-11T10:34:58;100340.97;;;27.75;31.14
12963;BME280;6546;49.882;8.666;2022-08-11T10:37:29;100334.09;;;27.71;31.83
12963;BME280;6546;49.882;8.666;2022-08-11T10:39:59;100329.75;;;27.84;30.55
12963;BME280;6546;49.882;8.666;2022-08-11T10:42:26;100323.78;;;27.95;30.31
12963;BME280;6546;49.882;8.666;2022-08-11T10:45:13;100322.63;;;27.99;30.02
12963;BME280;6546;49.882;8.666;2022-08-11T10:47:58;100318.16;;;28.00;30.16
12963;BME280;6546;49.882;8.666;2022-08-11T10:50:26;100320.22;;;28.09;29.58
12963;BME280;6546;49.882;8.666;2022-08-11T10:53:11;100318.13;;;28.14;29.81
12963;BME280;6546;49.882;8.666;2022-08-11T10:55:57;100325.25;;;28.14;30.07
12963;BME280;6546;49.882;8.666;2022-08-11T10:58:42;100312.25;;;28.09;30.05
12963;BME280;6546;49.882;8.666;2022-08-11T11:01:15;100307.53;;;28.00;30.55
12963;BME280;6546;49.882;8.666;2022-08-11T11:03:44;100307.13;;;28.06;30.29
12963;BME280;6546;49.882;8.666;2022-08-11T11:06:20;100306.75;;;28.12;30.28
12963;BME280;6546;49.882;8.666;2022-08-11T11:08:52;100292.94;;;28.20;29.86
12963;BME280;6546;49.882;8.666;2022-08-11T11:11:24;100295.75;;;28.31;30.12
12963;BME280;6546;49.882;8.666;2022-08-11T11:14:16;100288.72;;;28.30;30.17
12963;BME280;6546;49.882;8.666;2022-08-11T11:17:04;100286.25;;;28.27;30.08
12963;BME280;6546;49.882;8.666;2022-08-11T11:19:52;100289.72;;;28.15;30.76
12963;BME280;6546;49.882;8.666;2022-08-11T11:22:21;100292.44;;;28.27;30.11
12963;BME280;6546;49.882;8.666;2022-08-11T11:25:09;100301.69;;;28.22;30.43
12963;BME280;6546;49.882;8.666;2022-08-11T11:27:56;100272.50;;;28.20;30.39
12963;BME280;6546;49.882;8.666;2022-08-11T11:30:31;100277.22;;;28.29;30.32
12963;BME280;6546;49.882;8.666;2022-08-11T11:33:07;100285.78;;;28.34;29.85
12963;BME280;6546;49.882;8.666;2022-08-11T11:35:40;100282.38;;;28.32;29.83
12963;BME280;6546;49.882;8.666;2022-08-11T11:38:14;100266.59;;;28.29;29.77
12963;BME280;6546;49.882;8.666;2022-08-11T11:40:41;100272.84;;;28.43;29.82
12963;BME280;6546;49.882;8.666;2022-08-11T11:43:09;100272.47;;;28.49;30.10
12963;BME280;6546;49.882;8.666;2022-08-11T11:45:36;100258.00;;;28.53;30.27
12963;BME280;6546;49.882;8.666;2022-08-11T11:48:08;100255.63;;;28.61;29.78
12963;BME280;6546;49.882;8.666;2022-08-11T11:50:37;100263.13;;;28.69;29.26
12963;BME280;6546;49.882;8.666;2022-08-11T11:53:07;100250.31;;;28.61;29.10
12963;BME280;6546;49.882;8.666;2022-08-11T11:55:35;100244.38;;;28.57;29.34
12963;BME280;6546;49.882;8.666;2022-08-11T11:58:03;100236.81;;;28.64;28.43
12963;BME280;6546;49.882;8.666;2022-08-11T12:00:48;100231.69;;;28.61;29.15
12963;BME280;6546;49.882;8.666;2022-08-11T12:03:35;100238.31;;;28.81;28.29
12963;BME280;6546;49.882;8.666;2022-08-11T12:06:03;100226.97;;;28.92;27.43
12963;BME280;6546;49.882;8.666;2022-08-11T12:08:32;100233.56;;;28.99;27.38
12963;BME280;6546;49.882;8.666;2022-08-11T12:11:02;100228.44;;;28.96;27.15
12963;BME280;6546;49.882;8.666;2022-08-11T12:13:52;100236.75;;;28.78;27.37
12963;BME280;6546;49.882;8.666;2022-08-11T12:16:20;100227.28;;;28.87;28.14
12963;BME280;6546;49.882;8.666;2022-08-11T12:18:51;100223.31;;;28.93;27.55
12963;BME280;6546;49.882;8.666;2022-08-11T12:21:21;100213.50;;;28.80;28.08
12963;BME280;6546;49.882;8.666;2022-08-11T12:23:49;100224.50;;;28.89;28.42
12963;BME280;6546;49.882;8.666;2022-08-11T12:26:35;100214.00;;;29.00;28.29
12963;BME280;6546;49.882;8.666;2022-08-11T12:29:20;100198.53;;;29.05;27.80
12963;BME280;6546;49.882;8.666;2022-08-11T12:31:52;100203.41;;;29.11;27.46
12963;BME280;6546;49.882;8.666;2022-08-11T12:34:20;100197.56;;;29.06;26.87
12963;BME280;6546;49.882;8.666;2022-08-11T12:36:52;100195.34;;;29.00;27.83
12963;BME280;6546;49.882;8.666;2022-08-11T12:39:22;100192.03;;;29.09;27.14
12963;BME280;6546;49.882;8.666;2022-08-11T12:42:10;100193.94;;;29.07;26.96
12963;BME280;6546;49.882;8.666;2022-08-11T12:44:57;100195.66;;;29.08;27.68
12963;BME280;6546;49.882;8.666;2022-08-11T12:47:46;100201.81;;;28.96;27.41
12963;BME280;6546;49.882;8.666;2022-08-11T12:50:36;100180.28;;;28.99;26.52
12963;BME280;6546;49.882;8.666;2022-08-11T12:53:23;100185.69;;;28.84;26.86
12963;BME280;6546;49.882;8.666;2022-08-11T12:55:52;100177.19;;;28.92;26.30
12963;BME280;6546;49.882;8.666;2022-08-11T12:58:39;100174.22;;;28.97;26.38
12963;BME280;6546;49.882;8.666;2022-08-11T13:01:07;100171.09;;;28.90;26.59
12963;BME280;6546;49.882;8.666;2022-08-11T13:03:52;100174.53;;;28.92;26.80
12963;BME280;6546;49.882;8.666;2022-08-11T13:06:37;100168.56;;;28.89;26.97
12963;BME280;6546;49.882;8.666;2022-08-11T13:09:05;100168.06;;;28.96;26.75
12963;BME280;6546;49.882;8.666;2022-08-11T13:11:33;100166.97;;;28.99;27.23
12963;BME280;6546;49.882;8.666;2022-08-11T13:14:18;100162.28;;;29.02;26.58
12963;BME280;6546;49.882;8.666;2022-08-11T13:16:45;100158.56;;;29.05;26.44
12963;BME280;6546;49.882;8.666;2022-08-11T13:19:31;100153.88;;;29.21;26.31
12963;BME280;6546;49.882;8.666;2022-08-11T13:22:00;100154.84;;;29.20;26.47
12963;BME280;6546;49.882;8.666;2022-08-11T13:24:30;100150.22;;;29.22;27.13
12963;BME280;6546;49.882;8.666;2022-08-11T13:26:58;100163.88;;;29.30;26.89
12963;BME280;6546;49.882;8.666;2022-08-11T13:29:27;100153.22;;;29.30;26.35
12963;BME280;6546;49.882;8.666;2022-08-11T13:31:56;100149.56;;;29.31;26.41
12963;BME280;6546;49.882;8.666;2022-08-11T13:34:25;100137.72;;;29.36;26.24
12963;BME280;6546;49.882;8.666;2022-08-11T13:36:53;100140.84;;;29.29;26.80
12963;BME280;6546;49.882;8.666;2022-08-11T13:39:24;100137.63;;;29.24;26.92
12963;BME280;6546;49.882;8.666;2022-08-11T13:41:53;100130.59;;;29.23;26.94
12963;BME280;6546;49.882;8.666;2022-08-11T13:44:21;100126.97;;;29.24;26.77
12963;BME280;6546;49.882;8.666;2022-08-11T13:46:52;100132.09;;;29.27;27.10
12963;BME280;6546;49.882;8.666;2022-08-11T13:49:20;100128.69;;;29.25;26.55
12963;BME280;6546;49.882;8.666;2022-08-11T13:51:48;100127.94;;;29.23;26.33
12963;BME280;6546;49.882;8.666;2022-08-11T13:54:16;100115.88;;;29.30;26.32
12963;BME280;6546;49.882;8.666;2022-08-11T13:56:46;100104.75;;;29.37;26.04
12963;BME280;6546;49.882;8.666;2022-08-11T13:59:14;100108.06;;;29.40;26.11
12963;BME280;6546;49.882;8.666;2022-08-11T14:01:47;100119.78;;;29.50;26.33
12963;BME280;6546;49.882;8.666;2022-08-11T14:04:19;100099.72;;;29.45;24.93
12963;BME280;6546;49.882;8.666;2022-08-11T14:06:51;100119.44;;;29.55;25.15
12963;BME280;6546;49.882;8.666;2022-08-11T14:09:22;100109.88;;;29.40;25.04
12963;BME280;6546;49.882;8.666;2022-08-11T14:11:52;100106.25;;;29.41;24.44
12963;BME280;6546;49.882;8.666;2022-08-11T14:14:55;100099.56;;;29.35;24.88
12963;BME280;6546;49.882;8.666;2022-08-11T14:17:25;100103.06;;;29.36;25.67
12963;BME280;6546;49.882;8.666;2022-08-11T14:19:54;100102.66;;;29.42;24.58
12963;BME280;6546;49.882;8.666;2022-08-11T14:22:21;100097.03;;;29.33;24.42
12963;BME280;6546;49.882;8.666;2022-08-11T14:24:47;100088.78;;;29.37;24.98
12963;BME280;6546;49.882;8.666;2022-08-11T14:27:16;100097.03;;;29.33;24.56
12963;BME280;6546;49.882;8.666;2022-08-11T14:29:47;100091.69;;;29.33;24.55